E45 weather

Pine Mountain Lake Airport
Groveland, California, United States

Public forecast

Using degrees Fahrenheit for public forecast. Weather courtesy of forecast.io.

METAR (pilot weather report)

Closest report is Columbia Airport, 15.1 nm (28.0 km) NW. Retrieved UTC (0 seconds ago):

TAF (pilot weather forecast)

Forecast is more than 12 hours old.

Closest forecast is Castle Airport, 34.3 nm (63.6 km) SSW. Retrieved 2019/08/24 00:25 UTC (1 day ago):

TAF KMER 242320Z 2500/2524 VRB06KT P6SM SKC AMD NOT SKED